Hauptseite
METAR-TAF:

METAR-TAF

Flughäfen :

Bagdad, Irak

Flughafen Bagdad

Breite: 33-15-45N, Länge: 44-14-04E, Höhe: 35 m

Beobachtung

Neuester Wetterbericht von vor 6 Minuten, um 08:30 UTC
Wind 11 kt aus Nord/Nordwest, variierte zwischen West/Nordwest und Nord
Temperatur 36°C
Luftfeuchtigkeit 19%
Luftdruck 1012 hPa
Sichtweite 10 km oder mehr
keine Wolken unter 1500 m und keine Kumulonimbus oder Gewitterwolken

METAR: ORBI 240830Z 33011KT 300V360 CAVOK 36/09 Q1012

Zeit: 11:36 (08:36 UTC)

Prognose

Neuester Wetterbericht von vor 4 Stunden und 36 Minuten, um 04:00 UTC
Gültige Prognose vom 24 um 06 UTC bis 25 um 06 UTC
Wind 10 kt aus Nordwest
Sichtweite: 8000 m

TAF: ORBI 240400Z 2406/2506 32010KT 8000 NSC

Wetterbeobachtungen und Prognosen von mehr als 4000 Flughäfen (METAR und TAF Bericht).

Die verfügbaren Stationen werden durch gelbe und rote Markierungen auf der Karte dargestellt.

Führen Sie die Maus auf sie, um den Namen der Station zu sehen.

Darauf klicken, um die Beobachtung von Wetterbeobachtungen und Prognosen zu sehen.

Um die Karte zu ändern : klicken Sie auf den grünen Tasten mit einem schwarzen Kreuz Zum Vergrößern, auf den grünen Button mit einem Gedankenstrich zu verkleinern, oder auf die grünen Pfeile für benachbarte Karten.


METAR-TAF: